Aérodrome :
LOGIN :

S'inscrire | Disclaimer

   EN    FR    IT 

 










Légende :    VFR   VFR Marginal   IFR   IFR Intensif   IFR Très Intensif
Visi : 
Plafond : 
>= 8 km
>= 3000ft
5 à 8 km
1000 à 3000 ft
1500m à 5 km
500 à 1000 ft
800 à 1500m
200 à 500 ft
< 800m
< 200 ft
Symboles :   Orages  Brouillard  Fortes neiges  Fortes précipitations  Vent > 20 kt
SIGMETs :   Divers  Orages  Givrage  Turbulence  Onde Orograph.  Cendres Volcan.






- Altitude de l'aérodrome : 1 ft


EGCK - Caernarfon

DERNIER METAR :
  • 200850Z 36008KT 9999 FEW036 09/06 Q1013

METARs EXPIRÉS :
  • 200820Z 36006KT 9999 FEW036 08/06 Q1013
  • 200750Z AUTO 36008KT 9999 NCD 08/05 Q1013
  • 200720Z AUTO 01009KT 9999 NCD 08/05 Q1012
  • 200650Z AUTO 01009KT 9999 NCD 07/06 Q1012
  • 200620Z AUTO VRB01KT 9999 NCD 05/04 Q1011

TAF TAF EGCK
Valide du 20 à 09h jusqu'au 20 à 18h UTC


200802Z 2009/2018 36009KT 9999 SCT025
PROB30
TEMPO 2009/2018 02015G25KT 7000 SHRA



MET'MAP, la Météo Aéronautique d'un coup d'oeil ! - Copyright ORBIFLY Décembre 2007 - Disclaimer

ORBIFLY MET'MAP TEAM :

Programmation & Développement : Alexandra Zaïnal
Conception & Développement : Baudouin d'Aumeries
Co-Programmation & Développement : Marc-Olivier Méhu
Soutien technique & logistique : Manuel Goepfert

Contact : metmap@orbifly.com




SOURCES & CREDITS :

   NOAA